Airfield :
LOGIN :

Register | Disclaimer

   EN    FR    IT 

 










Legend :    VFR   Marginal VFR   IFR   Intensive IFR   Very Intensive IFR
Visi :
Ceiling :
>= 8 km
>= 3000ft
5 to 8 km
1000 to 3000 ft
1500m to 5 km
500 to 1000 ft
800 to 1500m
200 to 500 ft
< 800m
< 200 ft
Symbols :   Thunderstorms  Fog  Heavy snow  Heavy precipitations  Wind > 20 kt
SIGMETs :     Misc.  Thunderstorms  Icing  Turbulence  Mountain Waves  Volcanic Ashes






- Airport Elevation : 82 ft
- IATA code : ALG


DAAG - Alger Houari Boumedienne

CURRENT METAR :
  • 282200Z 06004KT 9999 BKN010 21/18 Q1018

EXPIRED METARs :
  • 282130Z 05004KT 9999 BKN010 21/18 Q1018
  • 282100Z 02003KT 350V050 9999 BKN013 21/18 Q1018
  • 282030Z 06006KT 9999 SCT020 21/18 Q1018
  • 282000Z 05008KT 9999 FEW020 21/18 Q1018
  • 281930Z 06006KT 9999 FEW020 21/18 Q1018

TAF TAF DAAG
Valid from the 28 at 18:00 until the 29 at 18:00 UTC


281700Z 2818/2918 06012KT 9999 SCT023
BECMG 2819/2821 VRB02KT
BECMG 2910/2912 06010KT



MET'MAP, your aeronautical weather chart ! - Copyright ORBIFLY December 2007 - Disclaimer

ORBIFLY MET'MAP TEAM :

Programming & Development : Alexandra Zaïnal
Original concept : Baudouin d'Aumeries
Technical & hardware support : Manuel Goepfert
Assistance : Marc-Olivier Méhu




SOURCES & CREDITS :

   NOAA